Time;durP1;ratioP1;P1;durP2;ratioP2;P2;SDS_P1;SDS_P2;PMS_P1;PMS_P2;Temp;Humidity;BMP_temperature;BMP_pressure;BME280_temperature;BME280_humidity;BME280_pressure;Samples;Min_cycle;Max_cycle;Signal;HPM_P1;HPM_P2
2023/07/19 00:01:44;;;;;;;6.35;3.38;;;;;;;16.68;100.00;101407.75;5038320;28;20040;-77
2023/07/19 00:04:30;;;;;;;3.95;2.67;;;;;;;16.69;100.00;101403.28;5037022;28;20041;-76
2023/07/19 00:07:16;;;;;;;4.85;2.97;;;;;;;16.69;100.00;101406.81;5037670;28;20037;-76
2023/07/19 00:10:03;;;;;;;6.07;3.40;;;;;;;16.67;100.00;101408.72;5038944;28;20061;-76
2023/07/19 00:12:48;;;;;;;4.53;2.95;;;;;;;16.66;100.00;101401.66;5023905;28;20930;-77
2023/07/19 00:15:34;;;;;;;5.60;3.35;;;;;;;16.67;100.00;101408.72;5024378;28;20041;-76
2023/07/19 00:18:20;;;;;;;4.63;3.65;;;;;;;16.66;100.00;101407.00;5038707;28;20037;-77
2023/07/19 00:21:06;;;;;;;5.40;3.78;;;;;;;16.64;100.00;101400.91;5023378;28;20582;-76
2023/07/19 00:23:52;;;;;;;7.35;3.83;;;;;;;16.63;100.00;101395.66;5023392;28;20056;-76
2023/07/19 00:26:37;;;;;;;5.63;3.75;;;;;;;16.61;100.00;101393.06;5027779;28;20419;-76
2023/07/19 00:29:23;;;;;;;4.93;3.95;;;;;;;16.61;100.00;101395.72;5035672;28;20403;-76
2023/07/19 00:32:09;;;;;;;6.70;3.88;;;;;;;16.60;100.00;101379.81;5012749;28;20056;-76
2023/07/19 00:34:55;;;;;;;6.20;3.78;;;;;;;16.61;100.00;101376.19;5024240;28;20032;-77
2023/07/19 00:37:43;;;;;;;4.93;3.53;;;;;;;16.59;100.00;101376.28;5038673;28;20060;-76
2023/07/19 00:40:32;;;;;;;4.95;3.78;;;;;;;16.53;100.00;101382.88;5025037;28;20262;-76
2023/07/19 00:43:18;;;;;;;7.18;4.43;;;;;;;16.50;100.00;101372.34;5026612;28;20037;-76
2023/07/19 00:46:04;;;;;;;4.93;4.00;;;;;;;16.50;100.00;101380.38;5028245;28;20068;-76
2023/07/19 00:48:50;;;;;;;5.55;4.13;;;;;;;16.52;100.00;101374.94;5041195;28;20078;-77
2023/07/19 00:51:35;;;;;;;5.60;4.25;;;;;;;16.55;100.00;101377.41;5039340;28;20144;-77
2023/07/19 00:54:21;;;;;;;5.63;4.25;;;;;;;16.54;100.00;101376.56;5026993;28;20089;-76
2023/07/19 00:57:07;;;;;;;5.30;4.55;;;;;;;16.54;100.00;101370.34;5025611;28;20075;-76
2023/07/19 00:59:53;;;;;;;7.13;4.60;;;;;;;16.54;100.00;101381.03;5025588;28;20029;-76
2023/07/19 01:02:40;;;;;;;7.05;4.30;;;;;;;16.52;100.00;101377.63;5041098;28;20130;-76
2023/07/19 01:05:26;;;;;;;9.27;4.82;;;;;;;16.49;100.00;101367.09;5031407;28;20127;-76
2023/07/19 01:08:12;;;;;;;5.95;4.03;;;;;;;16.48;100.00;101366.25;5026111;28;20036;-76
2023/07/19 01:10:59;;;;;;;6.38;4.82;;;;;;;16.43;100.00;101363.88;5030599;28;20037;-77
2023/07/19 01:13:55;;;;;;;8.95;5.40;;;;;;;16.35;100.00;101363.47;5054274;28;20123;-77
2023/07/19 01:16:40;;;;;;;6.90;4.93;;;;;;;16.28;100.00;101364.81;5027323;28;20106;-77
2023/07/19 01:19:26;;;;;;;5.45;4.53;;;;;;;16.23;100.00;101361.56;5026407;28;21059;-77
2023/07/19 01:22:12;;;;;;;10.38;5.78;;;;;;;16.18;100.00;101361.00;5030776;28;20053;-76
2023/07/19 01:24:59;;;;;;;7.60;5.00;;;;;;;16.11;100.00;101366.69;5040895;28;20687;-77
2023/07/19 01:27:45;;;;;;;8.38;4.65;;;;;;;16.08;100.00;101358.88;5026386;28;20052;-77
2023/07/19 01:30:31;;;;;;;7.15;5.15;;;;;;;16.05;100.00;101359.06;5041567;28;20534;-77
2023/07/19 01:33:16;;;;;;;9.18;5.10;;;;;;;16.04;100.00;101349.34;5026244;28;20041;-77
2023/07/19 01:36:02;;;;;;;9.25;5.53;;;;;;;16.03;100.00;101347.63;5041379;28;20041;-77
2023/07/19 01:38:48;;;;;;;8.00;5.53;;;;;;;16.01;100.00;101337.03;5040754;28;20036;-77
2023/07/19 01:41:33;;;;;;;7.47;5.55;;;;;;;16.01;100.00;101336.16;5029797;28;20049;-77
2023/07/19 01:44:19;;;;;;;9.73;5.70;;;;;;;16.02;100.00;101337.91;5042774;28;20036;-77
2023/07/19 01:47:05;;;;;;;8.90;5.45;;;;;;;16.01;100.00;101346.84;5040573;28;20556;-78
2023/07/19 01:49:51;;;;;;;7.78;5.90;;;;;;;16.02;100.00;101348.59;5039445;28;20048;-77
2023/07/19 01:52:38;;;;;;;7.97;5.80;;;;;;;16.02;100.00;101348.59;5026721;28;20040;-78
2023/07/19 01:55:24;;;;;;;7.43;5.38;;;;;;;16.00;100.00;101342.44;5025733;28;20041;-77
2023/07/19 01:58:10;;;;;;;9.35;5.97;;;;;;;16.01;100.00;101342.38;5041735;28;20036;-77
2023/07/19 02:00:55;;;;;;;8.05;5.78;;;;;;;16.01;100.00;101333.47;5041646;28;21979;-78
2023/07/19 02:03:41;;;;;;;6.82;5.43;;;;;;;16.01;100.00;101326.34;5040834;28;20399;-76
2023/07/19 02:06:27;;;;;;;11.88;6.10;;;;;;;16.01;100.00;101321.00;5053246;28;20403;-76
2023/07/19 02:09:13;;;;;;;7.72;5.85;;;;;;;16.00;100.00;101326.44;5025165;28;20888;-77
2023/07/19 02:11:58;;;;;;;8.95;5.80;;;;;;;16.00;100.00;101321.09;5026501;28;20475;-77
2023/07/19 02:14:44;;;;;;;9.60;6.40;;;;;;;16.00;100.00;101315.75;5040463;28;20055;-77
2023/07/19 02:17:30;;;;;;;8.70;6.05;;;;;;;16.01;100.00;101328.16;5039812;28;20072;-77
2023/07/19 02:20:19;;;;;;;10.25;6.35;;;;;;;16.00;100.00;101321.09;5039979;28;20040;-77
2023/07/19 02:23:05;;;;;;;7.45;6.07;;;;;;;15.97;100.00;101313.28;5040500;28;20492;-77
2023/07/19 02:25:51;;;;;;;8.40;6.07;;;;;;;15.96;100.00;101322.25;5038394;28;20399;-77
2023/07/19 02:28:37;;;;;;;10.18;6.38;;;;;;;15.94;100.00;101310.78;5039794;28;20036;-77
2023/07/19 02:31:23;;;;;;;10.57;6.90;;;;;;;15.95;100.00;101312.53;5052525;28;20086;-76
2023/07/19 02:34:09;;;;;;;10.18;6.28;;;;;;;15.95;100.00;101315.19;5040469;28;20958;-77
2023/07/19 02:36:56;;;;;;;8.00;6.35;;;;;;;15.94;100.00;101310.78;5038870;28;20055;-77
2023/07/19 02:39:42;;;;;;;9.63;6.13;;;;;;;15.93;100.00;101307.28;5039477;28;20119;-77
2023/07/19 02:42:28;;;;;;;9.35;6.57;;;;;;;15.91;100.00;101309.13;5014338;28;20075;-77
2023/07/19 02:45:13;;;;;;;8.73;6.60;;;;;;;15.91;100.00;101303.78;5024765;28;20037;-77
2023/07/19 02:47:59;;;;;;;8.95;6.82;;;;;;;15.89;100.00;101305.69;5025092;28;20037;-77
2023/07/19 02:50:46;;;;;;;8.57;6.22;;;;;;;15.87;100.00;101300.44;5037944;28;20410;-77
2023/07/19 02:53:32;;;;;;;9.55;6.07;;;;;;;15.88;100.00;101296.84;5038758;28;20099;-77
2023/07/19 02:56:17;;;;;;;8.23;5.95;;;;;;;15.89;100.00;101297.69;5040276;28;20044;-77
2023/07/19 02:59:04;;;;;;;9.88;6.43;;;;;;;15.91;100.00;101289.59;5023622;28;20043;-77
2023/07/19 03:01:50;;;;;;;12.30;6.90;;;;;;;15.91;100.00;101284.25;5039061;28;20083;-77
2023/07/19 03:04:35;;;;;;;8.23;6.60;;;;;;;15.92;100.00;101299.34;5038112;28;20021;-77
2023/07/19 03:07:21;;;;;;;10.45;6.97;;;;;;;15.92;100.00;101302.00;5039878;28;20499;-77
2023/07/19 03:10:08;;;;;;;12.02;6.95;;;;;;;15.94;100.00;101292.09;5039040;28;20106;-77
2023/07/19 03:12:53;;;;;;;9.30;6.10;;;;;;;15.93;100.00;101285.91;5038459;28;20115;-77
2023/07/19 03:15:39;;;;;;;8.52;6.85;;;;;;;15.95;100.00;101286.66;5028527;28;20429;-77
2023/07/19 03:18:25;;;;;;;10.18;6.70;;;;;;;15.94;100.00;101292.97;5038816;28;20075;-78
2023/07/19 03:21:11;;;;;;;9.20;7.13;;;;;;;15.95;100.00;101285.81;5039386;28;20130;-77
2023/07/19 03:23:56;;;;;;;8.60;6.57;;;;;;;15.98;100.00;101293.63;5026792;28;20033;-77
2023/07/19 03:26:42;;;;;;;11.18;7.47;;;;;;;16.01;100.00;101296.09;5038555;28;20040;-77
2023/07/19 03:29:28;;;;;;;9.95;7.13;;;;;;;16.02;100.00;101295.16;5040021;28;20037;-77
2023/07/19 03:32:13;;;;;;;10.70;7.20;;;;;;;16.04;100.00;101289.72;5038709;28;20045;-77
2023/07/19 03:34:59;;;;;;;12.18;6.75;;;;;;;16.02;100.00;101289.84;5021343;28;20036;-77
2023/07/19 03:37:45;;;;;;;9.07;6.55;;;;;;;16.02;100.00;101290.69;5037878;28;20127;-77
2023/07/19 03:40:31;;;;;;;7.93;6.53;;;;;;;16.01;100.00;101299.66;5037316;28;20803;-77
2023/07/19 03:43:16;;;;;;;11.05;7.20;;;;;;;16.01;100.00;101293.44;5038273;28;20792;-77
2023/07/19 03:46:04;;;;;;;9.65;6.53;;;;;;;16.00;100.00;101302.41;5038292;28;20494;-77
2023/07/19 03:48:50;;;;;;;10.18;6.78;;;;;;;15.98;100.00;101296.31;5037175;28;20126;-77
2023/07/19 03:51:36;;;;;;;8.90;6.03;;;;;;;15.98;100.00;101298.97;5038853;28;20038;-77
2023/07/19 03:54:23;;;;;;;8.75;6.72;;;;;;;15.97;100.00;101289.25;5021317;28;20045;-77
2023/07/19 03:57:09;;;;;;;8.73;6.50;;;;;;;15.98;100.00;101275.81;5010528;28;20041;-76
2023/07/19 03:59:55;;;;;;;10.00;7.05;;;;;;;15.99;100.00;101279.31;5050940;28;21055;-77
2023/07/19 04:02:40;;;;;;;9.98;6.38;;;;;;;15.98;100.00;101278.47;5023944;28;20040;-77
2023/07/19 04:05:26;;;;;;;10.95;7.55;;;;;;;15.98;100.00;101289.16;5009213;28;20627;-77
2023/07/19 04:08:16;;;;;;;9.98;6.80;;;;;;;15.99;100.00;101301.56;5037517;28;20064;-77
2023/07/19 04:11:02;;;;;;;8.82;6.75;;;;;;;16.01;100.00;101298.78;5038223;28;20496;-77
2023/07/19 04:13:47;;;;;;;10.88;6.75;;;;;;;16.01;100.00;101296.09;5038165;28;20139;-77
2023/07/19 04:16:33;;;;;;;8.02;6.22;;;;;;;16.02;100.00;101295.16;5038569;28;20044;-77
2023/07/19 04:19:19;;;;;;;9.93;6.40;;;;;;;16.01;100.00;101304.97;5027292;28;20065;-77
2023/07/19 04:22:05;;;;;;;9.82;6.50;;;;;;;16.03;100.00;101299.56;5042328;28;20037;-77
2023/07/19 04:24:54;;;;;;;8.48;6.20;;;;;;;16.03;100.00;101296.88;5031155;28;20108;-76
2023/07/19 04:27:43;;;;;;;10.45;6.15;;;;;;;16.04;100.00;101301.28;5031947;28;20037;-77
2023/07/19 04:30:29;;;;;;;9.95;6.45;;;;;;;16.04;100.00;101298.59;5016879;28;20049;-77
2023/07/19 04:33:15;;;;;;;6.90;5.40;;;;;;;16.04;100.00;101297.72;5042183;28;20044;-77
2023/07/19 04:36:10;;;;;;;7.03;5.22;;;;;;;16.02;100.00;101297.84;5027962;28;20117;-77
2023/07/19 04:38:56;;;;;;;6.25;4.90;;;;;;;16.03;100.00;101294.22;5026725;28;20959;-77
2023/07/19 04:41:42;;;;;;;7.10;4.75;;;;;;;16.03;100.00;101296.88;5040885;28;20063;-77
2023/07/19 04:44:28;;;;;;;7.53;4.22;;;;;;;16.02;100.00;101295.16;5025837;28;20131;-77
2023/07/19 04:47:14;;;;;;;8.50;4.10;;;;;;;16.01;100.00;101293.44;5041252;28;20036;-77
2023/07/19 04:49:59;;;;;;;4.68;3.60;;;;;;;16.02;100.00;101295.16;5041664;28;20522;-77
2023/07/19 04:52:45;;;;;;;6.78;3.90;;;;;;;16.06;100.00;101301.19;5027109;28;20072;-77
2023/07/19 04:55:31;;;;;;;5.13;3.35;;;;;;;16.07;100.00;101303.75;5040746;28;20529;-77
2023/07/19 04:58:17;;;;;;;6.00;3.15;;;;;;;16.09;100.00;101307.19;5041924;28;21986;-77
2023/07/19 05:01:08;;;;;;;4.85;2.38;;;;;;;16.10;100.00;101306.22;5026856;28;20040;-77
2023/07/19 05:03:54;;;;;;;3.97;2.30;;;;;;;16.11;100.00;101302.59;5026506;28;20764;-77
2023/07/19 05:06:40;;;;;;;4.35;2.17;;;;;;;16.11;100.00;101299.94;5024924;28;20036;-77
2023/07/19 05:09:25;;;;;;;4.95;2.72;;;;;;;16.13;100.00;101307.88;5026197;28;20044;-77
2023/07/19 05:12:11;;;;;;;5.43;3.55;;;;;;;16.14;100.00;101305.06;5042542;28;20048;-77
2023/07/19 05:14:57;;;;;;;9.02;4.07;;;;;;;16.10;100.00;101311.56;5042997;28;21903;-77
2023/07/19 05:17:43;;;;;;;5.60;3.65;;;;;;;16.02;100.00;101306.69;5016534;28;20033;-76
2023/07/19 05:20:31;;;;;;;5.38;4.00;;;;;;;15.97;100.00;101302.59;5041858;28;20380;-77
2023/07/19 05:23:17;;;;;;;7.90;3.83;;;;;;;15.93;100.00;101309.94;5041024;28;22029;-76
2023/07/19 05:26:02;;;;;;;7.63;3.90;;;;;;;15.92;100.00;101300.22;5039953;28;20060;-77
2023/07/19 05:28:49;;;;;;;5.38;3.70;;;;;;;15.91;100.00;101306.44;5039954;28;20060;-77
2023/07/19 05:31:35;;;;;;;6.90;3.83;;;;;;;15.91;100.00;101305.59;5025445;28;20467;-76
2023/07/19 05:34:22;;;;;;;9.00;4.15;;;;;;;15.90;100.00;101307.41;5041710;28;20729;-77
2023/07/19 05:37:07;;;;;;;5.80;3.38;;;;;;;15.91;100.00;101309.13;5024525;28;20037;-77
2023/07/19 05:39:53;;;;;;;5.22;2.90;;;;;;;15.92;100.00;101315.38;5041293;28;20129;-77
2023/07/19 05:42:39;;;;;;;6.15;3.33;;;;;;;15.91;100.00;101303.78;5040834;28;20041;-76
2023/07/19 05:45:25;;;;;;;5.72;3.72;;;;;;;15.90;100.00;101304.75;5024633;28;20499;-76
2023/07/19 05:48:11;;;;;;;5.18;3.63;;;;;;;15.89;100.00;101311.91;5041595;28;20446;-77
2023/07/19 05:50:57;;;;;;;4.55;3.22;;;;;;;15.90;100.00;101312.75;5041283;28;20064;-77
2023/07/19 05:53:42;;;;;;;3.63;3.00;;;;;;;15.90;100.00;101315.41;5040384;28;20040;-77
2023/07/19 05:56:28;;;;;;;5.70;3.45;;;;;;;15.92;100.00;101305.56;5040386;28;20135;-77
2023/07/19 05:59:14;;;;;;;4.93;3.38;;;;;;;15.95;100.00;101304.50;5040165;28;20032;-77
2023/07/19 06:02:05;;;;;;;3.08;2.22;;;;;;;15.98;100.00;101306.97;5025004;28;20040;-77
2023/07/19 06:04:51;;;;;;;3.83;2.40;;;;;;;16.00;100.00;101318.41;5025728;28;20052;-77
2023/07/19 06:07:36;;;;;;;5.13;2.47;;;;;;;16.02;100.00;101311.19;5038831;28;20029;-77
2023/07/19 06:10:22;;;;;;;2.20;1.92;;;;;;;16.02;100.00;101314.72;5039425;28;20067;-76
2023/07/19 06:13:08;;;;;;;2.83;1.60;;;;;;;16.05;100.00;101312.78;5041071;28;20044;-77
2023/07/19 06:15:56;;;;;;;3.05;1.60;;;;;;;16.07;100.00;101310.91;5038677;28;20457;-77
2023/07/19 06:18:42;;;;;;;2.58;1.88;;;;;;;16.10;100.00;101314.25;5030207;28;20411;-77
2023/07/19 06:21:29;;;;;;;3.50;1.73;;;;;;;16.15;100.00;101314.84;5026754;28;20156;-77
2023/07/19 06:24:15;;;;;;;3.47;1.70;;;;;;;16.20;100.00;101321.69;5039688;28;20087;-77
2023/07/19 06:27:01;;;;;;;2.15;1.52;;;;;;;16.21;100.00;101321.59;5051822;28;20029;-77
2023/07/19 06:29:46;;;;;;;2.55;1.58;;;;;;;16.21;100.00;101310.91;5039038;28;20059;-77
2023/07/19 06:32:32;;;;;;;1.90;1.58;;;;;;;16.22;100.00;101312.63;5038201;28;20040;-77
2023/07/19 06:35:18;;;;;;;1.92;1.38;;;;;;;16.24;100.00;101321.38;5040405;28;20106;-77
2023/07/19 06:38:04;;;;;;;2.22;1.42;;;;;;;16.30;100.00;101312.16;5038103;28;20040;-76
2023/07/19 06:40:49;;;;;;;2.30;1.70;;;;;;;16.34;100.00;101313.66;5026563;28;20056;-77
2023/07/19 06:43:35;;;;;;;3.92;1.50;;;;;;;16.40;100.00;101310.59;5023988;28;20134;-76
2023/07/19 06:46:21;;;;;;;1.73;1.27;;;;;;;16.45;100.00;101317.50;5037790;28;20047;-77
2023/07/19 06:49:07;;;;;;;4.13;1.42;;;;;;;16.48;100.00;101323.50;5039095;28;20032;-77
2023/07/19 06:51:53;;;;;;;1.30;1.20;;;;;;;16.50;100.00;101320.75;5029053;28;20060;-76
2023/07/19 06:54:39;;;;;;;1.58;1.40;;;;;;;16.52;100.00;101324.16;5038801;28;20054;-77
2023/07/19 06:57:24;;;;;;;1.20;1.10;;;;;;;16.55;100.00;101323.94;5038777;28;20041;-77
2023/07/19 07:00:11;;;;;;;2.38;1.10;;;;;;;16.59;100.00;101325.50;5038566;28;20049;-77
2023/07/19 07:02:56;;;;;;;1.17;1.10;;;;;;;16.62;100.00;101319.94;5038892;28;20048;-77
2023/07/19 07:05:45;;;;;;;1.30;1.08;;;;;;;16.62;100.00;101319.94;5038940;28;20036;-77
2023/07/19 07:08:31;;;;;;;1.95;1.10;;;;;;;16.66;100.00;101325.94;5027980;28;20039;-77
2023/07/19 07:11:17;;;;;;;1.10;1.00;;;;;;;16.69;100.00;101325.75;5040564;28;20270;-77
2023/07/19 07:14:02;;;;;;;1.58;1.20;;;;;;;16.73;100.00;101329.09;5039251;28;20047;-76
2023/07/19 07:16:48;;;;;;;1.92;0.95;;;;;;;16.77;100.00;101333.31;5040201;28;20037;-77
2023/07/19 07:19:34;;;;;;;1.02;0.93;;;;;;;16.79;100.00;101332.22;5039592;28;20035;-76
2023/07/19 07:22:20;;;;;;;1.13;1.00;;;;;;;16.83;100.00;101327.53;5039414;28;20056;-77
2023/07/19 07:25:06;;;;;;;1.42;1.00;;;;;;;16.87;100.00;101331.75;5037423;28;21589;-77
2023/07/19 07:27:51;;;;;;;1.85;1.20;;;;;;;16.90;100.00;101326.22;5038611;28;20036;-76
2023/07/19 07:30:37;;;;;;;1.73;1.23;;;;;;;16.97;100.00;101327.53;5039395;28;20047;-77
2023/07/19 07:33:23;;;;;;;1.63;1.30;;;;;;;17.04;100.00;101325.31;5013143;28;20043;-77
2023/07/19 07:36:09;;;;;;;1.80;1.30;;;;;;;17.13;100.00;101329.22;5022679;28;20110;-77
2023/07/19 07:38:55;;;;;;;4.20;1.50;;;;;;;17.23;100.00;101329.47;5038761;28;20059;-76
2023/07/19 07:41:41;;;;;;;2.65;1.65;;;;;;;17.37;100.00;101328.53;5038256;28;20117;-76
2023/07/19 07:44:26;;;;;;;3.50;1.45;;;;;;;17.48;100.00;101320.66;5037807;28;20606;-76
2023/07/19 07:47:12;;;;;;;2.05;1.40;;;;;;;17.57;100.00;101319.19;5022100;28;20214;-76
2023/07/19 07:50:00;;;;;;;1.65;1.50;;;;;;;17.62;100.00;101321.53;5027867;28;20484;-77
2023/07/19 07:52:47;;;;;;;5.05;1.80;;;;;;;17.72;100.00;101319.09;5038448;28;20041;-76
2023/07/19 07:55:34;;;;;;;1.65;1.50;;;;;;;18.02;100.00;101317.94;5038115;28;21908;-77
2023/07/19 07:58:20;;;;;;;2.88;1.70;;;;;;;18.40;100.00;101314.41;5023370;28;20041;-76
2023/07/19 08:01:06;;;;;;;1.88;1.20;;;;;;;18.64;100.00;101316.31;5023113;28;20044;-76
2023/07/19 08:03:52;;;;;;;2.22;1.25;;;;;;;18.68;100.00;101316.94;5040074;28;20044;-76
2023/07/19 08:06:38;;;;;;;3.10;1.23;;;;;;;18.73;100.00;101317.44;5023368;28;20028;-76
2023/07/19 08:09:24;;;;;;;1.27;1.10;;;;;;;18.93;100.00;101304.41;5039023;28;20059;-77
2023/07/19 08:12:10;;;;;;;3.33;1.50;;;;;;;19.23;100.00;101305.81;5040102;28;20041;-77
2023/07/19 08:14:55;;;;;;;1.90;1.13;;;;;;;19.40;100.00;101307.22;5039918;28;20131;-77
2023/07/19 08:17:41;;;;;;;2.00;1.10;;;;;;;19.37;100.00;101297.56;5040381;28;20037;-78
2023/07/19 08:20:27;;;;;;;3.17;1.77;;;;;;;19.21;100.00;101315.78;5040017;28;20545;-77
2023/07/19 08:23:13;;;;;;;2.15;1.63;;;;;;;18.98;100.00;101313.84;5027962;28;20119;-78
2023/07/19 08:25:58;;;;;;;3.53;2.00;;;;;;;18.77;100.00;101320.75;5038823;28;20037;-77
2023/07/19 08:28:44;;;;;;;3.67;2.08;;;;;;;18.61;100.00;101315.69;5023964;28;20041;-77
2023/07/19 08:31:30;;;;;;;2.30;2.08;;;;;;;18.52;100.00;101301.94;5037053;28;20045;-77
2023/07/19 08:34:16;;;;;;;3.40;1.83;;;;;;;18.54;100.00;101309.88;5037702;28;20124;-77
2023/07/19 08:37:02;;;;;;;4.15;1.80;;;;;;;18.55;100.00;101312.47;5037767;28;20882;-77
2023/07/19 08:39:48;;;;;;;2.33;1.80;;;;;;;18.52;100.00;101317.19;5037137;28;20044;-78
2023/07/19 08:42:34;;;;;;;4.28;2.00;;;;;;;18.54;100.00;101308.06;5021827;28;20721;-77
2023/07/19 08:45:22;;;;;;;3.03;1.80;;;;;;;18.73;100.00;101304.03;5022637;28;20070;-77
2023/07/19 08:48:08;;;;;;;2.05;1.42;;;;;;;18.98;100.00;101296.88;5037854;28;20453;-77
2023/07/19 08:50:55;;;;;;;3.35;1.67;;;;;;;19.39;100.00;101306.34;5022364;28;20048;-77
2023/07/19 08:53:41;;;;;;;2.13;1.27;;;;;;;19.87;100.00;101299.16;5038754;28;20040;-77
2023/07/19 08:56:30;;;;;;;1.42;1.27;;;;;;;20.10;100.00;101306.44;5038560;28;20041;-77
2023/07/19 08:59:16;;;;;;;1.80;1.15;;;;;;;20.19;100.00;101309.25;5024444;28;20036;-78
2023/07/19 09:02:02;;;;;;;5.60;1.60;;;;;;;20.35;100.00;101305.31;5051447;28;20044;-77
2023/07/19 09:05:13;;;;;;;3.85;1.42;;;;;;;20.27;96.14;101305.09;5040270;28;20053;-78
2023/07/19 09:08:00;;;;;;;2.42;1.30;;;;;;;20.06;99.70;101303.13;5027858;28;20041;-77
2023/07/19 09:10:46;;;;;;;2.10;0.90;;;;;;;20.15;100.00;101299.69;5042495;28;20036;-77
2023/07/19 09:13:35;;;;;;;4.70;1.88;;;;;;;20.34;100.00;101290.19;5041725;28;20049;-78
2023/07/19 09:16:29;;;;;;;1.30;1.20;;;;;;;20.62;99.04;101310.34;5041881;28;20075;-77
2023/07/19 09:19:15;;;;;;;2.85;1.48;;;;;;;20.81;98.50;101302.59;5040949;28;20039;-78
2023/07/19 09:22:03;;;;;;;4.93;1.70;;;;;;;21.02;99.41;101308.91;5040507;28;20632;-78
2023/07/19 09:24:57;;;;;;;3.42;1.38;;;;;;;20.89;96.83;101305.53;5041896;28;20094;-78
2023/07/19 09:27:45;;;;;;;2.38;1.23;;;;;;;20.83;98.37;101312.25;5040461;28;20033;-78
2023/07/19 09:30:31;;;;;;;2.33;1.23;;;;;;;21.04;98.73;101308.78;5039959;28;20106;-78
2023/07/19 09:33:17;;;;;;;3.72;1.50;;;;;;;20.96;96.18;101309.41;5043586;28;20036;-78
2023/07/19 09:36:04;;;;;;;4.20;1.40;;;;;;;20.90;96.85;101307.22;5033864;28;20550;-75
2023/07/19 09:38:49;;;;;;;2.47;1.30;;;;;;;20.96;95.89;101317.50;5044455;28;20033;-77
2023/07/19 09:41:35;;;;;;;3.17;1.23;;;;;;;20.93;94.92;101301.63;5031040;28;20059;-76
2023/07/19 09:44:21;;;;;;;3.03;1.30;;;;;;;20.80;92.76;101323.25;5054155;28;20123;-77
2023/07/19 09:47:10;;;;;;;3.53;1.30;;;;;;;20.62;93.80;101314.84;5040122;28;20419;-77
2023/07/19 09:49:56;;;;;;;1.83;1.25;;;;;;;20.60;93.32;101306.88;5040152;28;20033;-76
2023/07/19 09:52:42;;;;;;;1.73;1.30;;;;;;;20.58;93.77;101310.69;5029046;28;20037;-76
2023/07/19 09:55:28;;;;;;;1.23;0.90;;;;;;;20.53;92.72;101313.75;5039774;28;20141;-77
2023/07/19 09:58:15;;;;;;;2.08;0.98;;;;;;;20.48;93.17;101316.81;5041706;28;20044;-77
2023/07/19 10:01:01;;;;;;;3.45;1.27;;;;;;;20.44;91.88;101323.41;5039631;28;20037;-77
2023/07/19 10:03:47;;;;;;;3.47;1.40;;;;;;;20.46;92.08;101318.78;5026760;28;20262;-77
2023/07/19 10:06:35;;;;;;;3.35;1.30;;;;;;;20.52;92.11;101316.59;5039983;28;20045;-77
2023/07/19 10:09:23;;;;;;;4.00;1.67;;;;;;;20.49;92.29;101317.69;5025721;28;20041;-77
2023/07/19 10:12:18;;;;;;;3.45;1.63;;;;;;;20.29;90.73;101321.94;5040603;28;20134;-78
2023/07/19 10:15:08;;;;;;;3.72;1.50;;;;;;;20.14;93.22;101329.38;5040789;28;20032;-76
2023/07/19 10:17:55;;;;;;;1.17;1.08;;;;;;;20.14;92.76;101324.88;5026278;28;20094;-77
2023/07/19 10:20:43;;;;;;;1.98;1.20;;;;;;;20.27;92.42;101329.28;5026252;28;20051;-75
2023/07/19 10:23:34;;;;;;;1.00;0.90;;;;;;;20.39;91.72;101324.75;5040042;28;20028;-77
2023/07/19 10:26:29;;;;;;;2.80;1.30;;;;;;;20.51;90.77;101328.28;5040083;28;20064;-77
2023/07/19 10:29:16;;;;;;;2.55;1.85;;;;;;;20.62;92.00;101323.78;5024282;28;20090;-77
2023/07/19 10:32:03;;;;;;;3.17;1.35;;;;;;;20.71;92.23;101319.47;5014490;28;20072;-77
2023/07/19 10:34:49;;;;;;;1.27;1.17;;;;;;;20.70;91.76;101320.44;5024239;28;20051;-77
2023/07/19 10:37:35;;;;;;;4.15;1.50;;;;;;;20.59;90.75;101321.31;5040921;28;20112;-77
2023/07/19 10:40:21;;;;;;;4.00;1.20;;;;;;;20.70;91.72;101323.13;5039755;28;20068;-78
2023/07/19 10:43:06;;;;;;;1.40;1.30;;;;;;;20.75;91.32;101328.13;5039765;28;20124;-77
2023/07/19 10:45:53;;;;;;;1.88;1.33;;;;;;;20.67;91.05;101331.47;5026720;28;20040;-77
2023/07/19 10:48:38;;;;;;;2.72;1.48;;;;;;;20.55;91.42;101330.63;5023916;28;20036;-77
2023/07/19 10:51:24;;;;;;;1.73;1.15;;;;;;;20.42;91.78;101336.13;5039298;28;20116;-77
2023/07/19 10:54:13;;;;;;;3.72;1.70;;;;;;;20.24;91.30;101333.06;5039188;28;20041;-77
2023/07/19 10:57:00;;;;;;;2.90;1.35;;;;;;;20.18;91.51;101331.72;5039656;28;20025;-77
2023/07/19 10:59:49;;;;;;;1.73;1.23;;;;;;;20.20;91.62;101331.59;5038506;28;20077;-77
2023/07/19 11:02:35;;;;;;;1.73;1.35;;;;;;;20.45;92.08;101330.50;5041238;28;20040;-77
2023/07/19 11:05:21;;;;;;;1.30;1.20;;;;;;;20.69;91.00;101318.75;5027707;28;20555;-78
2023/07/19 11:08:08;;;;;;;2.55;1.05;;;;;;;20.75;89.57;101326.31;5038231;28;20085;-76
2023/07/19 11:10:56;;;;;;;2.45;1.45;;;;;;;20.77;89.06;101329.72;5040033;28;20044;-77
2023/07/19 11:13:44;;;;;;;2.80;1.27;;;;;;;20.75;88.38;101331.69;5024702;28;20688;-77
2023/07/19 11:16:31;;;;;;;1.63;1.33;;;;;;;20.71;87.83;101324.84;5023851;28;20037;-78
2023/07/19 11:19:40;;;;;;;2.45;1.30;;;;;;;20.60;86.52;101323.03;5024306;28;20148;-77
2023/07/19 11:22:27;;;;;;;1.30;1.15;;;;;;;20.67;87.83;101323.41;5052862;28;20075;-77
2023/07/19 11:25:13;;;;;;;1.50;1.20;;;;;;;20.85;88.33;101325.59;5025666;28;20079;-78
2023/07/19 11:27:58;;;;;;;5.00;1.20;;;;;;;20.97;87.95;101315.66;5038073;28;20040;-79
2023/07/19 11:30:44;;;;;;;1.67;1.00;;;;;;;21.13;87.25;101328.72;5023456;28;20052;-78
2023/07/19 11:33:30;;;;;;;1.95;1.08;;;;;;;21.18;86.67;101323.78;5038795;28;20057;-77
2023/07/19 11:36:16;;;;;;;1.15;1.00;;;;;;;21.21;85.96;101323.53;5024464;28;20068;-76
2023/07/19 11:39:02;;;;;;;2.22;1.25;;;;;;;21.09;85.68;101327.25;5022949;28;20136;-77
2023/07/19 11:41:51;;;;;;;1.88;0.90;;;;;;;21.00;86.04;101321.66;5036541;28;20163;-78
2023/07/19 11:44:44;;;;;;;2.63;1.00;;;;;;;21.14;85.39;101322.34;5023847;28;20162;-77
2023/07/19 11:47:30;;;;;;;;;;;;;;;21.16;80.45;101329.31;5039997;28;20171;-77
2023/07/19 11:50:15;;;;;;;2.25;1.17;;;;;;;21.09;84.96;101324.56;5023991;28;19924;-77
2023/07/19 11:53:03;;;;;;;3.17;1.13;;;;;;;21.07;84.61;101326.53;5025390;28;20395;-78
2023/07/19 11:55:49;;;;;;;1.73;1.17;;;;;;;21.02;84.55;101326.88;5025153;28;20067;-78
2023/07/19 11:58:35;;;;;;;1.50;0.65;;;;;;;21.12;83.80;101330.53;5038889;28;20479;-77
2023/07/19 12:01:21;;;;;;;1.08;0.82;;;;;;;21.20;82.51;101319.16;5023901;28;20419;-77
2023/07/19 12:04:07;;;;;;;2.38;1.13;;;;;;;21.24;82.70;101333.19;5038503;28;20049;-78
2023/07/19 12:06:53;;;;;;;1.05;0.90;;;;;;;21.12;82.29;101329.66;5037773;28;20072;-78
2023/07/19 12:09:38;;;;;;;1.40;1.08;;;;;;;21.03;81.68;101328.63;5024966;28;20051;-78
2023/07/19 12:12:24;;;;;;;1.23;0.95;;;;;;;21.08;82.00;101329.06;5039547;28;20080;-78
2023/07/19 12:15:12;;;;;;;2.47;1.15;;;;;;;21.12;81.20;101327.84;5022749;28;20040;-78
2023/07/19 12:17:57;;;;;;;2.05;0.90;;;;;;;21.14;80.09;101330.41;5024448;28;20036;-77
2023/07/19 12:20:43;;;;;;;1.85;0.90;;;;;;;21.17;80.60;101332.84;5023453;28;22010;-78
2023/07/19 12:23:30;;;;;;;1.85;0.93;;;;;;;21.19;81.10;101333.56;5037649;28;20041;-78
2023/07/19 12:26:16;;;;;;;1.45;0.98;;;;;;;21.23;81.00;101326.94;5037900;28;20032;-78
2023/07/19 12:29:02;;;;;;;2.97;0.93;;;;;;;21.24;80.76;101331.34;5038599;28;20033;-78
2023/07/19 12:31:48;;;;;;;1.80;1.02;;;;;;;21.36;80.43;101334.00;5037138;28;20624;-78
2023/07/19 12:34:33;;;;;;;3.08;1.10;;;;;;;21.48;80.39;101335.66;5039003;28;21902;-77
2023/07/19 12:37:19;;;;;;;1.00;0.93;;;;;;;21.43;78.30;101340.59;5027553;28;20032;-78
2023/07/19 12:40:08;;;;;;;1.73;1.00;;;;;;;21.33;79.33;101335.13;5040842;28;20044;-77
2023/07/19 12:42:54;;;;;;;1.23;0.88;;;;;;;21.34;79.33;101339.50;5041993;28;20044;-77
2023/07/19 12:45:40;;;;;;;3.10;1.08;;;;;;;21.33;79.29;101336.94;5040465;28;20061;-77
2023/07/19 12:48:26;;;;;;;1.33;0.80;;;;;;;21.33;79.82;101332.41;5040441;28;20095;-77